CDT,Max TemperatureF,Mean TemperatureF,Min TemperatureF,Max Dew PointF,MeanDew PointF,Min DewpointF,Max Humidity, Mean Humidity, Min Humidity, Max Sea Level PressureIn, Mean Sea Level PressureIn, Min Sea Level PressureIn, Max VisibilityMiles, Mean VisibilityMiles, Min VisibilityMiles, Max Wind SpeedMPH, Mean Wind SpeedMPH, Max Gust SpeedMPH,PrecipitationIn, CloudCover, Events, WindDirDegrees
2011-10-1,68,52,37,37,36,34,93,61,30,30.33,30.26,30.16,10,10,10,15,9,23,0.00,0,,143
2011-10-2,82,63,44,43,39,36,76,48,23,30.17,30.13,30.08,10,10,10,13,6,20,0.00,0,,160
2011-10-3,82,63,44,43,38,36,81,45,19,30.18,30.14,30.11,10,10,5,17,5,23,0.00,0,,147
2011-10-4,84,67,50,46,42,37,66,42,25,30.15,30.08,30.00,10,10,10,20,9,29,0.00,0,,139
2011-10-5,87,71,55,50,46,43,77,46,22,30.05,30.01,29.96,10,10,7,21,9,28,0.00,0,,142
2011-10-6,82,68,53,45,43,39,67,44,21,30.03,29.98,29.90,10,9,5,28,14,37,0.00,0,,140
2011-10-7,82,73,64,61,54,46,60,50,42,29.90,29.83,29.76,10,10,7,24,16,33,0.00,0,,167
2011-10-8,71,66,60,64,61,55,100,85,73,30.13,30.01,29.87,10,10,7,13,6,16,0.21,5,Rain-Thunderstorm,255
2011-10-9,78,68,59,63,57,52,100,74,42,30.20,30.15,30.08,10,9,2,16,8,20,0.04,2,Rain,99
2011-10-10,66,62,57,59,54,52,94,81,68,30.07,29.97,29.89,10,10,5,16,10,22,0.09,1,Rain,152
2011-10-11,75,62,48,57,51,48,100,73,41,29.88,29.83,29.76,10,10,10,16,6,22,0.00,1,,151
2011-10-12,62,58,53,57,55,52,100,88,72,29.76,29.73,29.70,10,10,3,12,3,,0.06,2,Rain-Thunderstorm,169
2011-10-13,60,54,48,52,46,41,100,79,51,29.74,29.71,29.68,10,10,7,23,12,31,0.00,3,,303
2011-10-14,53,48,44,46,43,39,100,82,58,29.86,29.78,29.71,10,10,10,24,13,31,0.00,3,,299
2011-10-15,57,46,35,43,39,36,100,75,51,29.93,29.89,29.85,10,10,10,22,10,28,0.00,1,Rain,284
2011-10-16,53,46,39,39,36,30,100,70,41,29.93,29.90,29.86,10,10,7,28,13,37,0.00,1,,287
2011-10-17,57,46,35,34,31,28,87,63,33,29.93,29.91,29.89,10,10,10,31,13,37,0.00,0,,291
2011-10-18,48,39,30,34,29,23,93,68,43,30.11,30.04,29.95,10,10,10,24,13,29,0.00,3,,322
2011-10-19,46,35,24,34,30,21,93,75,61,30.17,30.13,30.11,10,10,10,15,8,18,0.00,5,,353
2011-10-20,53,38,24,36,31,25,100,76,44,30.09,30.04,29.99,10,10,10,17,7,22,0.00,0,,345
2011-10-21,62,44,26,41,33,25,100,71,39,30.07,30.01,29.96,10,10,10,14,4,18,0.00,0,,257
2011-10-22,60,45,30,41,36,30,100,72,42,30.15,30.08,29.96,10,10,5,8,3,18,0.00,1,,206
2011-10-23,59,49,39,48,43,37,100,83,54,29.94,29.86,29.81,10,9,2,18,5,22,0.05,2,Rain,282
2011-10-24,57,44,30,45,38,28,100,82,59,30.02,29.99,29.95,10,10,7,12,2,,0.00,0,,259
2011-10-25,55,50,44,43,37,34,82,65,47,30.02,29.92,29.86,10,10,10,22,15,31,0.00,1,,49
2011-10-26,46,39,32,41,38,32,100,89,71,30.13,30.09,30.07,10,10,10,9,2,,0.00,6,Rain,335
2011-10-27,51,38,26,37,31,27,100,76,40,30.09,30.07,30.04,10,10,7,12,4,16,0.01,2,,278
2011-10-28,53,42,30,34,28,25,87,63,35,30.09,30.05,30.01,10,10,10,23,7,31,0.00,1,,286
2011-10-29,53,36,19,30,24,18,93,63,30,30.06,29.99,29.88,10,10,7,16,5,18,0.00,0,,148
2011-10-30,44,42,39,39,34,27,87,73,49,29.98,29.86,29.79,10,10,7,21,12,26,0.00,6,Rain,298
2011-10-31,55,39,23,36,30,23,100,75,38,30.03,29.96,29.87,10,9,4,14,5,18,0.00,1,,198